sensor_id;sensor_type;location;lat;lon;timestamp;pressure;altitude;pressure_sealevel;temperature;humidity
62524;BME280;53689;56.878;60.672;2023-02-20T00:00:29;97657.75;;;16.55;16.91
62524;BME280;53689;56.878;60.672;2023-02-20T00:02:57;97655.91;;;16.56;16.31
62524;BME280;53689;56.878;60.672;2023-02-20T00:05:27;97642.28;;;16.66;16.87
62524;BME280;53689;56.878;60.672;2023-02-20T00:07:54;97644.03;;;16.58;16.38
62524;BME280;53689;56.878;60.672;2023-02-20T00:10:22;97647.34;;;16.60;16.52
62524;BME280;53689;56.878;60.672;2023-02-20T00:12:50;97643.19;;;16.58;16.66
62524;BME280;53689;56.878;60.672;2023-02-20T00:15:19;97640.16;;;16.61;16.47
62524;BME280;53689;56.878;60.672;2023-02-20T00:17:47;97640.44;;;16.66;16.45
62524;BME280;53689;56.878;60.672;2023-02-20T00:20:16;97633.59;;;16.63;16.53
62524;BME280;53689;56.878;60.672;2023-02-20T00:22:45;97634.44;;;16.64;17.01
62524;BME280;53689;56.878;60.672;2023-02-20T00:25:14;97638.72;;;16.73;16.49
62524;BME280;53689;56.878;60.672;2023-02-20T00:27:42;97631.41;;;16.67;16.80
62524;BME280;53689;56.878;60.672;2023-02-20T00:30:13;97638.25;;;16.70;16.91
62524;BME280;53689;56.878;60.672;2023-02-20T00:32:42;97636.59;;;16.69;16.86
62524;BME280;53689;56.878;60.672;2023-02-20T00:35:09;97633.91;;;16.69;17.02
62524;BME280;53689;56.878;60.672;2023-02-20T00:37:37;97628.72;;;16.67;16.11
62524;BME280;53689;56.878;60.672;2023-02-20T00:40:08;97630.22;;;16.70;16.86
62524;BME280;53689;56.878;60.672;2023-02-20T00:42:35;97628.47;;;16.62;16.50
62524;BME280;53689;56.878;60.672;2023-02-20T00:45:05;97640.44;;;16.66;16.86
62524;BME280;53689;56.878;60.672;2023-02-20T00:47:33;97632.41;;;16.66;16.98
62524;BME280;53689;56.878;60.672;2023-02-20T00:50:02;97628.56;;;16.69;17.27
62524;BME280;53689;56.878;60.672;2023-02-20T00:52:29;97627.44;;;16.63;16.97
62524;BME280;53689;56.878;60.672;2023-02-20T00:54:57;97620.53;;;16.69;16.72
62524;BME280;53689;56.878;60.672;2023-02-20T00:57:27;97613.88;;;16.64;17.08
62524;BME280;53689;56.878;60.672;2023-02-20T00:59:54;97619.91;;;16.67;17.45
62524;BME280;53689;56.878;60.672;2023-02-20T01:02:22;97615.56;;;16.66;16.14
62524;BME280;53689;56.878;60.672;2023-02-20T01:04:50;97608.00;;;16.69;17.39
62524;BME280;53689;56.878;60.672;2023-02-20T01:07:18;97617.78;;;16.62;17.58
62524;BME280;53689;56.878;60.672;2023-02-20T01:09:45;97610.03;;;16.67;16.41
62524;BME280;53689;56.878;60.672;2023-02-20T01:12:14;97612.69;;;16.67;17.03
62524;BME280;53689;56.878;60.672;2023-02-20T01:14:44;97613.53;;;16.68;16.77
62524;BME280;53689;56.878;60.672;2023-02-20T01:17:12;97611.03;;;16.66;16.73
62524;BME280;53689;56.878;60.672;2023-02-20T01:19:40;97609.56;;;16.63;16.39
62524;BME280;53689;56.878;60.672;2023-02-20T01:22:08;97609.38;;;16.65;16.80
62524;BME280;53689;56.878;60.672;2023-02-20T01:24:35;97602.22;;;16.66;16.32
62524;BME280;53689;56.878;60.672;2023-02-20T01:27:03;97596.38;;;16.62;16.74
62524;BME280;53689;56.878;60.672;2023-02-20T01:29:31;97600.72;;;16.63;16.49
62524;BME280;53689;56.878;60.672;2023-02-20T01:32:00;97599.06;;;16.62;16.59
62524;BME280;53689;56.878;60.672;2023-02-20T01:34:27;97588.38;;;16.62;16.11
62524;BME280;53689;56.878;60.672;2023-02-20T01:36:55;97590.19;;;16.61;16.63
62524;BME280;53689;56.878;60.672;2023-02-20T01:39:26;97593.72;;;16.62;16.42
62524;BME280;53689;56.878;60.672;2023-02-20T01:41:56;97593.25;;;16.58;16.16
62524;BME280;53689;56.878;60.672;2023-02-20T01:44:27;97591.38;;;16.59;16.58
62524;BME280;53689;56.878;60.672;2023-02-20T01:46:55;97586.34;;;16.64;16.23
62524;BME280;53689;56.878;60.672;2023-02-20T01:49:29;97591.22;;;16.60;16.02
62524;BME280;53689;56.878;60.672;2023-02-20T01:52:04;97594.34;;;16.64;15.80
62524;BME280;53689;56.878;60.672;2023-02-20T01:54:33;97583.38;;;16.59;16.17
62524;BME280;53689;56.878;60.672;2023-02-20T01:57:04;97585.88;;;16.60;15.91
62524;BME280;53689;56.878;60.672;2023-02-20T01:59:36;97586.72;;;16.61;16.42
62524;BME280;53689;56.878;60.672;2023-02-20T02:02:06;97596.09;;;16.57;15.88
62524;BME280;53689;56.878;60.672;2023-02-20T02:04:36;97610.41;;;16.79;17.83
62524;BME280;53689;56.878;60.672;2023-02-20T02:07:05;97620.00;;;16.88;17.97
62524;BME280;53689;56.878;60.672;2023-02-20T02:09:38;97616.75;;;16.63;16.40
62524;BME280;53689;56.878;60.672;2023-02-20T02:12:08;97622.91;;;16.63;16.33
62524;BME280;53689;56.878;60.672;2023-02-20T02:14:36;97618.31;;;16.57;16.73
62524;BME280;53689;56.878;60.672;2023-02-20T02:26:35;97618.47;;;16.56;16.59
62524;BME280;53689;56.878;60.672;2023-02-20T02:29:31;97612.13;;;16.57;16.53
62524;BME280;53689;56.878;60.672;2023-02-20T02:32:37;97618.34;;;16.34;15.50
62524;BME280;53689;56.878;60.672;2023-02-20T02:35:38;97617.44;;;15.95;15.82
62524;BME280;53689;56.878;60.672;2023-02-20T02:38:17;97611.63;;;16.15;15.86
62524;BME280;53689;56.878;60.672;2023-02-20T02:40:55;97606.34;;;16.30;15.69
62524;BME280;53689;56.878;60.672;2023-02-20T02:43:28;97610.13;;;16.35;15.29
62524;BME280;53689;56.878;60.672;2023-02-20T02:46:06;97599.09;;;16.39;15.58
62524;BME280;53689;56.878;60.672;2023-02-20T02:48:40;97607.28;;;16.37;16.58
62524;BME280;53689;56.878;60.672;2023-02-20T02:51:12;97605.72;;;16.43;15.91
62524;BME280;53689;56.878;60.672;2023-02-20T02:54:03;97602.88;;;16.44;15.12
62524;BME280;53689;56.878;60.672;2023-02-20T02:56:34;97602.88;;;16.44;15.99
62524;BME280;53689;56.878;60.672;2023-02-20T02:59:02;97604.91;;;16.42;16.06
62524;BME280;53689;56.878;60.672;2023-02-20T03:01:31;97611.53;;;16.46;15.90
62524;BME280;53689;56.878;60.672;2023-02-20T03:06:32;97609.25;;;16.43;15.51
62524;BME280;53689;56.878;60.672;2023-02-20T03:09:06;97605.38;;;16.46;16.12
62524;BME280;53689;56.878;60.672;2023-02-20T03:11:37;97606.38;;;16.45;16.04
62524;BME280;53689;56.878;60.672;2023-02-20T03:14:06;97605.38;;;16.46;15.60
62524;BME280;53689;56.878;60.672;2023-02-20T03:16:40;97605.56;;;16.44;15.94
62524;BME280;53689;56.878;60.672;2023-02-20T03:19:12;97604.25;;;16.40;15.91
62524;BME280;53689;56.878;60.672;2023-02-20T03:21:42;97608.94;;;16.38;16.04
62524;BME280;53689;56.878;60.672;2023-02-20T03:24:13;97616.31;;;16.36;15.99
62524;BME280;53689;56.878;60.672;2023-02-20T03:26:43;97602.25;;;16.42;15.94
62524;BME280;53689;56.878;60.672;2023-02-20T03:29:15;97605.72;;;16.43;15.81
62524;BME280;53689;56.878;60.672;2023-02-20T03:31:47;97603.25;;;16.41;15.99
62524;BME280;53689;56.878;60.672;2023-02-20T03:34:19;97605.63;;;16.36;16.23
62524;BME280;53689;56.878;60.672;2023-02-20T03:36:51;97597.06;;;16.41;16.12
62524;BME280;53689;56.878;60.672;2023-02-20T03:39:29;97600.13;;;16.38;16.16
62524;BME280;53689;56.878;60.672;2023-02-20T03:42:00;97607.44;;;16.35;15.67
62524;BME280;53689;56.878;60.672;2023-02-20T03:44:33;97608.00;;;16.31;15.73
62524;BME280;53689;56.878;60.672;2023-02-20T03:47:03;97604.25;;;16.40;15.69
62524;BME280;53689;56.878;60.672;2023-02-20T03:49:36;97614.47;;;16.36;15.95
62524;BME280;53689;56.878;60.672;2023-02-20T03:52:05;97596.59;;;16.37;16.33
62524;BME280;53689;56.878;60.672;2023-02-20T03:54:38;97603.59;;;16.38;16.16
62524;BME280;53689;56.878;60.672;2023-02-20T03:57:11;97613.47;;;16.38;16.08
62524;BME280;53689;56.878;60.672;2023-02-20T03:59:43;97610.59;;;16.39;16.54
62524;BME280;53689;56.878;60.672;2023-02-20T04:02:16;97599.91;;;16.39;16.40
62524;BME280;53689;56.878;60.672;2023-02-20T04:04:48;97602.41;;;16.41;16.75
62524;BME280;53689;56.878;60.672;2023-02-20T04:07:22;97608.09;;;15.59;16.27
62524;BME280;53689;56.878;60.672;2023-02-20T04:09:53;97602.59;;;15.61;15.25
62524;BME280;53689;56.878;60.672;2023-02-20T04:12:27;97614.88;;;16.02;15.83
62524;BME280;53689;56.878;60.672;2023-02-20T04:14:58;97613.97;;;16.18;15.55
62524;BME280;53689;56.878;60.672;2023-02-20T04:17:30;97618.75;;;16.22;15.42
62524;BME280;53689;56.878;60.672;2023-02-20T04:19:59;97610.75;;;16.22;15.27
62524;BME280;53689;56.878;60.672;2023-02-20T04:22:29;97609.00;;;16.30;15.64
62524;BME280;53689;56.878;60.672;2023-02-20T04:25:05;97602.38;;;16.26;15.67
62524;BME280;53689;56.878;60.672;2023-02-20T04:27:35;97597.44;;;16.38;15.60
62524;BME280;53689;56.878;60.672;2023-02-20T04:30:04;97587.63;;;16.30;15.44
62524;BME280;53689;56.878;60.672;2023-02-20T04:32:32;97591.97;;;16.31;15.90
62524;BME280;53689;56.878;60.672;2023-02-20T04:35:00;97586.63;;;16.31;15.71
62524;BME280;53689;56.878;60.672;2023-02-20T04:37:29;97590.97;;;16.32;15.89
62524;BME280;53689;56.878;60.672;2023-02-20T04:40:00;97584.78;;;16.31;15.68
62524;BME280;53689;56.878;60.672;2023-02-20T04:42:30;97595.81;;;16.52;15.99
62524;BME280;53689;56.878;60.672;2023-02-20T04:44:57;97580.53;;;16.60;15.77
62524;BME280;53689;56.878;60.672;2023-02-20T04:47:27;97571.03;;;16.58;16.18
62524;BME280;53689;56.878;60.672;2023-02-20T04:49:55;97566.50;;;16.43;15.86
62524;BME280;53689;56.878;60.672;2023-02-20T04:52:27;97566.75;;;16.48;15.58
62524;BME280;53689;56.878;60.672;2023-02-20T04:54:55;97567.44;;;16.50;16.06
62524;BME280;53689;56.878;60.672;2023-02-20T04:57:25;97564.28;;;16.47;16.27
62524;BME280;53689;56.878;60.672;2023-02-20T04:59:53;97562.38;;;16.56;16.09
62524;BME280;53689;56.878;60.672;2023-02-20T05:02:21;97554.88;;;16.51;16.07
62524;BME280;53689;56.878;60.672;2023-02-20T05:04:48;97556.63;;;16.59;16.03
62524;BME280;53689;56.878;60.672;2023-02-20T05:07:16;97563.06;;;16.49;16.69
62524;BME280;53689;56.878;60.672;2023-02-20T05:09:45;97571.50;;;16.61;15.80
62524;BME280;53689;56.878;60.672;2023-02-20T05:12:12;97579.47;;;15.76;16.91
62524;BME280;53689;56.878;60.672;2023-02-20T05:14:41;97576.03;;;15.99;15.77
62524;BME280;53689;56.878;60.672;2023-02-20T05:17:09;97555.00;;;16.19;16.32
62524;BME280;53689;56.878;60.672;2023-02-20T05:19:37;97563.13;;;16.26;16.88
62524;BME280;53689;56.878;60.672;2023-02-20T05:22:08;97567.09;;;16.30;16.74
62524;BME280;53689;56.878;60.672;2023-02-20T05:24:36;97565.63;;;16.28;15.88
62524;BME280;53689;56.878;60.672;2023-02-20T05:27:04;97565.25;;;16.31;16.00
62524;BME280;53689;56.878;60.672;2023-02-20T05:29:32;97563.63;;;16.45;16.20
62524;BME280;53689;56.878;60.672;2023-02-20T05:32:01;97553.47;;;16.40;15.79
62524;BME280;53689;56.878;60.672;2023-02-20T05:34:29;97558.47;;;16.43;16.08
62524;BME280;53689;56.878;60.672;2023-02-20T05:36:57;97555.16;;;16.41;16.33
62524;BME280;53689;56.878;60.672;2023-02-20T05:39:24;97561.31;;;16.42;15.98
62524;BME280;53689;56.878;60.672;2023-02-20T05:41:52;97561.16;;;16.43;16.09
62524;BME280;53689;56.878;60.672;2023-02-20T05:44:19;97572.00;;;16.42;15.89
62524;BME280;53689;56.878;60.672;2023-02-20T05:46:47;97558.00;;;16.40;16.19
62524;BME280;53689;56.878;60.672;2023-02-20T05:49:17;97566.06;;;16.55;16.10
62524;BME280;53689;56.878;60.672;2023-02-20T05:51:45;97566.75;;;16.48;15.80
62524;BME280;53689;56.878;60.672;2023-02-20T05:54:12;97561.63;;;16.47;16.64
62524;BME280;53689;56.878;60.672;2023-02-20T05:56:40;97567.78;;;16.47;16.42
62524;BME280;53689;56.878;60.672;2023-02-20T05:59:09;97562.25;;;16.49;15.79
62524;BME280;53689;56.878;60.672;2023-02-20T06:01:38;97554.25;;;16.49;16.46
62524;BME280;53689;56.878;60.672;2023-02-20T06:04:05;97555.72;;;16.52;15.67
62524;BME280;53689;56.878;60.672;2023-02-20T06:06:35;97548.06;;;16.48;16.47
62524;BME280;53689;56.878;60.672;2023-02-20T06:09:05;97553.69;;;16.54;16.08
62524;BME280;53689;56.878;60.672;2023-02-20T06:11:34;97552.69;;;16.55;16.40
62524;BME280;53689;56.878;60.672;2023-02-20T06:14:03;97550.00;;;16.55;16.20
62524;BME280;53689;56.878;60.672;2023-02-20T06:16:32;97549.53;;;16.51;15.99
62524;BME280;53689;56.878;60.672;2023-02-20T06:19:00;97549.06;;;16.47;16.48
62524;BME280;53689;56.878;60.672;2023-02-20T06:21:28;97530.81;;;15.98;16.28
62524;BME280;53689;56.878;60.672;2023-02-20T06:23:57;97536.53;;;16.33;15.94
62524;BME280;53689;56.878;60.672;2023-02-20T06:26:25;97524.63;;;16.35;15.59
62524;BME280;53689;56.878;60.672;2023-02-20T06:28:54;97524.91;;;16.26;16.38
62524;BME280;53689;56.878;60.672;2023-02-20T06:31:23;97519.56;;;16.26;16.04
62524;BME280;53689;56.878;60.672;2023-02-20T06:33:51;97519.84;;;16.31;16.15
62524;BME280;53689;56.878;60.672;2023-02-20T06:36:21;97524.84;;;16.34;15.73
62524;BME280;53689;56.878;60.672;2023-02-20T06:38:49;97525.09;;;16.39;16.56
62524;BME280;53689;56.878;60.672;2023-02-20T06:41:19;97515.34;;;16.31;16.23
62524;BME280;53689;56.878;60.672;2023-02-20T06:43:47;97503.81;;;16.31;16.51
62524;BME280;53689;56.878;60.672;2023-02-20T06:46:14;97506.13;;;16.34;15.96
62524;BME280;53689;56.878;60.672;2023-02-20T06:48:43;97508.03;;;16.25;16.32
62524;BME280;53689;56.878;60.672;2023-02-20T06:51:11;97512.84;;;16.30;16.50
62524;BME280;53689;56.878;60.672;2023-02-20T06:53:39;97503.25;;;16.35;16.69
62524;BME280;53689;56.878;60.672;2023-02-20T06:56:07;97502.84;;;16.47;16.29
62524;BME280;53689;56.878;60.672;2023-02-20T06:58:36;97506.78;;;16.36;16.21
62524;BME280;53689;56.878;60.672;2023-02-20T07:01:04;97499.06;;;16.41;16.47
62524;BME280;53689;56.878;60.672;2023-02-20T07:03:32;97504.81;;;16.30;16.47
62524;BME280;53689;56.878;60.672;2023-02-20T07:05:59;97497.91;;;16.35;16.56
62524;BME280;53689;56.878;60.672;2023-02-20T07:08:27;97499.31;;;16.31;16.33
62524;BME280;53689;56.878;60.672;2023-02-20T07:10:55;97497.75;;;16.37;16.72
62524;BME280;53689;56.878;60.672;2023-02-20T07:13:23;97499.53;;;16.60;16.95
62524;BME280;53689;56.878;60.672;2023-02-20T07:15:52;97499.78;;;16.50;16.49
62524;BME280;53689;56.878;60.672;2023-02-20T07:18:20;97492.22;;;16.39;16.54
62524;BME280;53689;56.878;60.672;2023-02-20T07:20:47;97488.72;;;16.38;16.51
62524;BME280;53689;56.878;60.672;2023-02-20T07:23:15;97495.44;;;16.34;16.66
62524;BME280;53689;56.878;60.672;2023-02-20T07:25:43;97493.44;;;16.51;16.49
62524;BME280;53689;56.878;60.672;2023-02-20T07:28:11;97487.69;;;16.39;16.79
62524;BME280;53689;56.878;60.672;2023-02-20T07:30:39;97483.75;;;16.50;16.48
62524;BME280;53689;56.878;60.672;2023-02-20T07:33:08;97488.06;;;16.36;16.82
62524;BME280;53689;56.878;60.672;2023-02-20T07:35:36;97482.38;;;16.54;16.71
62524;BME280;53689;56.878;60.672;2023-02-20T07:38:06;97478.03;;;16.38;16.29
62524;BME280;53689;56.878;60.672;2023-02-20T07:40:34;97480.69;;;16.38;16.33
62524;BME280;53689;56.878;60.672;2023-02-20T07:43:04;97479.88;;;16.38;16.47
62524;BME280;53689;56.878;60.672;2023-02-20T07:45:37;97482.47;;;16.46;15.94
62524;BME280;53689;56.878;60.672;2023-02-20T07:48:05;97483.09;;;16.33;16.14
62524;BME280;53689;56.878;60.672;2023-02-20T07:50:34;97481.88;;;16.35;16.66
62524;BME280;53689;56.878;60.672;2023-02-20T07:53:01;97471.78;;;16.46;16.43
62524;BME280;53689;56.878;60.672;2023-02-20T07:55:29;97471.97;;;16.44;16.12
62524;BME280;53689;56.878;60.672;2023-02-20T07:57:57;97474.09;;;16.34;16.33
62524;BME280;53689;56.878;60.672;2023-02-20T08:00:26;97469.75;;;16.33;16.92
62524;BME280;53689;56.878;60.672;2023-02-20T08:02:54;97470.66;;;16.40;16.71
62524;BME280;53689;56.878;60.672;2023-02-20T08:05:21;97464.31;;;16.41;16.50
62524;BME280;53689;56.878;60.672;2023-02-20T08:07:51;97470.31;;;16.43;16.97
62524;BME280;53689;56.878;60.672;2023-02-20T08:10:22;97464.31;;;16.41;17.31
62524;BME280;53689;56.878;60.672;2023-02-20T08:12:51;97454.75;;;16.47;16.74
62524;BME280;53689;56.878;60.672;2023-02-20T08:15:20;97454.19;;;16.36;16.77
62524;BME280;53689;56.878;60.672;2023-02-20T08:17:48;97457.03;;;16.35;16.85
62524;BME280;53689;56.878;60.672;2023-02-20T08:20:18;97455.22;;;16.50;16.92
62524;BME280;53689;56.878;60.672;2023-02-20T08:22:47;97457.22;;;16.33;16.67
62524;BME280;53689;56.878;60.672;2023-02-20T08:25:17;97456.03;;;16.36;16.55
62524;BME280;53689;56.878;60.672;2023-02-20T08:27:45;97456.88;;;16.52;16.40
62524;BME280;53689;56.878;60.672;2023-02-20T08:30:19;97461.91;;;16.46;16.01
62524;BME280;53689;56.878;60.672;2023-02-20T08:32:47;97452.72;;;16.49;17.18
62524;BME280;53689;56.878;60.672;2023-02-20T08:35:15;97448.47;;;16.55;16.03
62524;BME280;53689;56.878;60.672;2023-02-20T08:37:43;97441.28;;;16.40;16.58
62524;BME280;53689;56.878;60.672;2023-02-20T08:40:12;97436.78;;;16.41;16.50
62524;BME280;53689;56.878;60.672;2023-02-20T08:42:41;97435.84;;;16.48;16.39
62524;BME280;53689;56.878;60.672;2023-02-20T08:45:10;97434.56;;;16.59;16.00
62524;BME280;53689;56.878;60.672;2023-02-20T08:47:37;97425.91;;;16.57;16.80
62524;BME280;53689;56.878;60.672;2023-02-20T08:50:06;97420.47;;;16.50;16.68
62524;BME280;53689;56.878;60.672;2023-02-20T08:52:33;97421.09;;;16.53;16.51
62524;BME280;53689;56.878;60.672;2023-02-20T08:55:01;97418.44;;;16.53;16.33
62524;BME280;53689;56.878;60.672;2023-02-20T08:57:29;97412.72;;;16.56;16.78
62524;BME280;53689;56.878;60.672;2023-02-20T08:59:59;97415.94;;;16.51;16.56
62524;BME280;53689;56.878;60.672;2023-02-20T09:02:26;97408.75;;;16.52;16.28
62524;BME280;53689;56.878;60.672;2023-02-20T09:04:55;97404.06;;;16.54;16.40
62524;BME280;53689;56.878;60.672;2023-02-20T09:07:23;97412.72;;;16.56;16.44
62524;BME280;53689;56.878;60.672;2023-02-20T09:09:51;97401.31;;;16.47;16.97
62524;BME280;53689;56.878;60.672;2023-02-20T09:12:18;97405.25;;;16.51;16.29
62524;BME280;53689;56.878;60.672;2023-02-20T09:14:46;97404.31;;;16.44;16.58
62524;BME280;53689;56.878;60.672;2023-02-20T09:17:15;97400.09;;;16.49;16.62
62524;BME280;53689;56.878;60.672;2023-02-20T09:19:43;97394.31;;;16.46;17.01
62524;BME280;53689;56.878;60.672;2023-02-20T09:22:11;97399.28;;;16.49;16.96
62524;BME280;53689;56.878;60.672;2023-02-20T09:24:39;97401.38;;;16.54;16.08
62524;BME280;53689;56.878;60.672;2023-02-20T09:27:06;97394.09;;;16.47;16.56
62524;BME280;53689;56.878;60.672;2023-02-20T09:29:34;97388.03;;;16.54;16.66
62524;BME280;53689;56.878;60.672;2023-02-20T09:32:02;97390.25;;;16.87;16.89
62524;BME280;53689;56.878;60.672;2023-02-20T09:34:31;97386.28;;;16.46;16.89
62524;BME280;53689;56.878;60.672;2023-02-20T09:36:59;97387.75;;;16.48;16.83
62524;BME280;53689;56.878;60.672;2023-02-20T09:39:27;97381.84;;;16.53;16.82
62524;BME280;53689;56.878;60.672;2023-02-20T09:42:04;97372.72;;;16.47;16.29
62524;BME280;53689;56.878;60.672;2023-02-20T09:44:39;97376.41;;;16.46;16.66
62524;BME280;53689;56.878;60.672;2023-02-20T09:47:29;97364.81;;;16.39;16.58
62524;BME280;53689;56.878;60.672;2023-02-20T09:50:02;97369.34;;;16.39;17.04
62524;BME280;53689;56.878;60.672;2023-02-20T09:52:35;97371.16;;;16.53;16.67
62524;BME280;53689;56.878;60.672;2023-02-20T09:55:10;97367.38;;;16.47;16.87
62524;BME280;53689;56.878;60.672;2023-02-20T09:57:39;97363.63;;;16.42;17.40
62524;BME280;53689;56.878;60.672;2023-02-20T10:00:11;97364.72;;;16.47;17.13
62524;BME280;53689;56.878;60.672;2023-02-20T10:02:43;97358.28;;;16.42;16.88
62524;BME280;53689;56.878;60.672;2023-02-20T10:05:19;97351.34;;;16.47;17.50
62524;BME280;53689;56.878;60.672;2023-02-20T10:07:49;97355.44;;;16.43;16.99
62524;BME280;53689;56.878;60.672;2023-02-20T10:10:20;97341.97;;;16.52;16.77
62524;BME280;53689;56.878;60.672;2023-02-20T10:12:55;97345.75;;;16.42;17.24
62524;BME280;53689;56.878;60.672;2023-02-20T10:15:31;97342.31;;;16.48;17.04
62524;BME280;53689;56.878;60.672;2023-02-20T10:18:08;97332.28;;;16.50;17.32
62524;BME280;53689;56.878;60.672;2023-02-20T10:20:50;97334.06;;;16.43;16.87
62524;BME280;53689;56.878;60.672;2023-02-20T10:23:27;97332.09;;;16.52;16.79
62524;BME280;53689;56.878;60.672;2023-02-20T10:26:01;97329.44;;;16.74;19.69
62524;BME280;53689;56.878;60.672;2023-02-20T10:28:32;97327.75;;;16.51;17.84
62524;BME280;53689;56.878;60.672;2023-02-20T10:31:08;97336.16;;;16.48;17.52
62524;BME280;53689;56.878;60.672;2023-02-20T10:33:47;97326.56;;;16.54;17.41
62524;BME280;53689;56.878;60.672;2023-02-20T10:36:20;97324.41;;;16.64;17.38
62524;BME280;53689;56.878;60.672;2023-02-20T10:38:53;97321.41;;;16.52;17.18
62524;BME280;53689;56.878;60.672;2023-02-20T10:41:27;97326.06;;;16.65;18.13
62524;BME280;53689;56.878;60.672;2023-02-20T10:44:00;97313.59;;;16.50;18.26
62524;BME280;53689;56.878;60.672;2023-02-20T10:46:33;97308.25;;;16.50;17.46
62524;BME280;53689;56.878;60.672;2023-02-20T10:49:17;97314.84;;;16.55;17.41
62524;BME280;53689;56.878;60.672;2023-02-20T10:51:49;97310.34;;;16.55;16.98
62524;BME280;53689;56.878;60.672;2023-02-20T10:54:21;97313.84;;;16.56;17.56
62524;BME280;53689;56.878;60.672;2023-02-20T10:56:56;97315.25;;;16.52;17.15
62524;BME280;53689;56.878;60.672;2023-02-20T10:59:32;97306.34;;;16.66;17.08
62524;BME280;53689;56.878;60.672;2023-02-20T11:02:04;97309.22;;;16.49;17.36
62524;BME280;53689;56.878;60.672;2023-02-20T11:04:40;97309.63;;;16.46;17.22
62524;BME280;53689;56.878;60.672;2023-02-20T11:07:13;97302.44;;;16.47;17.48
62524;BME280;53689;56.878;60.672;2023-02-20T11:09:41;97298.38;;;16.51;17.38
62524;BME280;53689;56.878;60.672;2023-02-20T11:12:20;97291.00;;;16.53;17.33
62524;BME280;53689;56.878;60.672;2023-02-20T11:14:49;97295.53;;;16.53;17.54
62524;BME280;53689;56.878;60.672;2023-02-20T11:17:19;97295.53;;;16.53;17.20
62524;BME280;53689;56.878;60.672;2023-02-20T11:19:49;97284.44;;;16.56;16.92
62524;BME280;53689;56.878;60.672;2023-02-20T11:22:38;97284.06;;;16.59;17.45
62524;BME280;53689;56.878;60.672;2023-02-20T11:25:17;97283.31;;;16.87;17.47
62524;BME280;53689;56.878;60.672;2023-02-20T11:27:47;97284.91;;;16.59;17.60
62524;BME280;53689;56.878;60.672;2023-02-20T11:30:26;97286.69;;;16.74;17.72
62524;BME280;53689;56.878;60.672;2023-02-20T11:33:03;97280.19;;;16.61;17.05
62524;BME280;53689;56.878;60.672;2023-02-20T11:35:36;97276.53;;;16.47;17.58
62524;BME280;53689;56.878;60.672;2023-02-20T11:38:34;97267.44;;;16.42;17.30
62524;BME280;53689;56.878;60.672;2023-02-20T11:44:09;97264.88;;;16.70;17.25
62524;BME280;53689;56.878;60.672;2023-02-20T11:46:43;97264.19;;;17.33;17.40
62524;BME280;53689;56.878;60.672;2023-02-20T11:49:22;97256.66;;;16.72;17.61
62524;BME280;53689;56.878;60.672;2023-02-20T11:51:50;97253.66;;;16.60;17.18
62524;BME280;53689;56.878;60.672;2023-02-20T11:54:21;97252.13;;;16.72;17.40
62524;BME280;53689;56.878;60.672;2023-02-20T11:56:58;97261.44;;;16.98;16.64
62524;BME280;53689;56.878;60.672;2023-02-20T11:59:32;97259.19;;;16.80;17.72
62524;BME280;53689;56.878;60.672;2023-02-20T12:02:20;97255.31;;;17.26;16.80
62524;BME280;53689;56.878;60.672;2023-02-20T12:05:07;97243.78;;;16.82;17.44
62524;BME280;53689;56.878;60.672;2023-02-20T12:07:37;97243.88;;;17.74;17.54
62524;BME280;53689;56.878;60.672;2023-02-20T12:10:19;97241.31;;;18.37;17.84
62524;BME280;53689;56.878;60.672;2023-02-20T12:12:48;97236.53;;;16.98;16.71
62524;BME280;53689;56.878;60.672;2023-02-20T12:15:19;97237.81;;;17.24;17.24
62524;BME280;53689;56.878;60.672;2023-02-20T12:17:59;97230.41;;;16.82;17.81
62524;BME280;53689;56.878;60.672;2023-02-20T12:20:33;97230.03;;;16.63;17.60
62524;BME280;53689;56.878;60.672;2023-02-20T12:23:13;97226.63;;;16.48;18.01
62524;BME280;53689;56.878;60.672;2023-02-20T12:25:47;97227.94;;;16.59;17.61
62524;BME280;53689;56.878;60.672;2023-02-20T12:28:22;97231.44;;;16.59;17.70
62524;BME280;53689;56.878;60.672;2023-02-20T12:31:04;97231.38;;;16.53;17.66
62524;BME280;53689;56.878;60.672;2023-02-20T12:33:47;97234.50;;;16.78;17.21
62524;BME280;53689;56.878;60.672;2023-02-20T12:36:32;97227.56;;;16.62;17.22
62524;BME280;53689;56.878;60.672;2023-02-20T12:39:06;97233.69;;;16.56;18.03
62524;BME280;53689;56.878;60.672;2023-02-20T12:41:48;97228.59;;;16.61;17.50
62524;BME280;53689;56.878;60.672;2023-02-20T12:44:39;97232.41;;;16.73;17.32
62524;BME280;53689;56.878;60.672;2023-02-20T12:47:19;97225.41;;;16.72;18.05
62524;BME280;53689;56.878;60.672;2023-02-20T12:50:01;97223.03;;;16.62;17.45
62524;BME280;53689;56.878;60.672;2023-02-20T12:55:44;97228.66;;;16.68;17.93
62524;BME280;53689;56.878;60.672;2023-02-20T12:58:23;97223.03;;;16.62;17.88
62524;BME280;53689;56.878;60.672;2023-02-20T13:00:55;97229.41;;;16.61;17.32
62524;BME280;53689;56.878;60.672;2023-02-20T13:03:41;97222.69;;;16.66;17.13
62524;BME280;53689;56.878;60.672;2023-02-20T13:06:14;97222.69;;;16.66;17.68
62524;BME280;53689;56.878;60.672;2023-02-20T13:08:55;97217.50;;;16.86;17.46
62524;BME280;53689;56.878;60.672;2023-02-20T13:11:32;97212.72;;;16.81;17.79
62524;BME280;53689;56.878;60.672;2023-02-20T13:14:07;97215.25;;;16.61;17.54
62524;BME280;53689;56.878;60.672;2023-02-20T13:16:44;97204.28;;;16.56;17.70
62524;BME280;53689;56.878;60.672;2023-02-20T13:19:19;97211.53;;;16.62;18.48
62524;BME280;53689;56.878;60.672;2023-02-20T13:21:48;97206.13;;;16.77;17.38
62524;BME280;53689;56.878;60.672;2023-02-20T13:24:29;97204.59;;;16.68;17.72
62524;BME280;53689;56.878;60.672;2023-02-20T13:26:58;97204.47;;;16.76;17.64
62524;BME280;53689;56.878;60.672;2023-02-20T13:29:28;97199.03;;;16.91;17.24